sensor_id;sensor_type;location;lat;lon;timestamp;pressure;altitude;pressure_sealevel;temperature;humidity
53671;BME280;39571;48.612;8.088;2022-07-15T00:00:07;100109.63;;;20.42;45.10
53671;BME280;39571;48.612;8.088;2022-07-15T00:02:34;100103.69;;;20.37;45.38
53671;BME280;39571;48.612;8.088;2022-07-15T00:04:59;100106.69;;;20.30;45.50
53671;BME280;39571;48.612;8.088;2022-07-15T00:07:25;100104.22;;;20.25;45.56
53671;BME280;39571;48.612;8.088;2022-07-15T00:09:50;100097.31;;;20.21;45.26
53671;BME280;39571;48.612;8.088;2022-07-15T00:12:34;100106.25;;;20.20;45.67
53671;BME280;39571;48.612;8.088;2022-07-15T00:14:59;100101.06;;;20.17;45.55
53671;BME280;39571;48.612;8.088;2022-07-15T00:17:25;100096.75;;;19.96;46.36
53671;BME280;39571;48.612;8.088;2022-07-15T00:19:51;100093.16;;;19.97;46.09
53671;BME280;39571;48.612;8.088;2022-07-15T00:22:17;100090.59;;;19.95;46.10
53671;BME280;39571;48.612;8.088;2022-07-15T00:24:42;100097.31;;;19.84;46.94
53671;BME280;39571;48.612;8.088;2022-07-15T00:27:07;100091.72;;;19.90;46.49
53671;BME280;39571;48.612;8.088;2022-07-15T00:29:33;100086.97;;;19.78;46.56
53671;BME280;39571;48.612;8.088;2022-07-15T00:31:58;100097.78;;;19.73;47.04
53671;BME280;39571;48.612;8.088;2022-07-15T00:34:24;100098.03;;;19.69;46.95
53671;BME280;39571;48.612;8.088;2022-07-15T00:36:49;100093.56;;;19.69;47.34
53671;BME280;39571;48.612;8.088;2022-07-15T00:39:16;100098.03;;;19.69;47.25
53671;BME280;39571;48.612;8.088;2022-07-15T00:41:43;100091.13;;;19.64;47.15
53671;BME280;39571;48.612;8.088;2022-07-15T00:44:09;100099.22;;;19.61;46.89
53671;BME280;39571;48.612;8.088;2022-07-15T00:46:35;100098.69;;;19.53;47.19
53671;BME280;39571;48.612;8.088;2022-07-15T00:49:03;100087.28;;;19.51;46.79
53671;BME280;39571;48.612;8.088;2022-07-15T00:51:33;100088.59;;;19.41;47.24
53671;BME280;39571;48.612;8.088;2022-07-15T00:54:02;100087.63;;;19.44;47.49
53671;BME280;39571;48.612;8.088;2022-07-15T00:56:28;100097.63;;;19.37;47.29
53671;BME280;39571;48.612;8.088;2022-07-15T00:58:57;100090.72;;;19.33;47.43
53671;BME280;39571;48.612;8.088;2022-07-15T01:01:24;100087.41;;;19.28;47.26
53671;BME280;39571;48.612;8.088;2022-07-15T01:03:50;100099.06;;;19.24;47.77
53671;BME280;39571;48.612;8.088;2022-07-15T01:06:16;100089.53;;;19.20;47.78
53671;BME280;39571;48.612;8.088;2022-07-15T01:08:41;100085.44;;;19.13;47.77
53671;BME280;39571;48.612;8.088;2022-07-15T01:11:07;100091.19;;;19.02;47.67
53671;BME280;39571;48.612;8.088;2022-07-15T01:13:33;100097.38;;;19.03;47.69
53671;BME280;39571;48.612;8.088;2022-07-15T01:15:58;100089.47;;;19.01;47.49
53671;BME280;39571;48.612;8.088;2022-07-15T01:18:23;100091.50;;;18.95;48.02
53671;BME280;39571;48.612;8.088;2022-07-15T01:20:49;100094.16;;;18.95;48.01
53671;BME280;39571;48.612;8.088;2022-07-15T01:23:15;100098.66;;;18.93;48.70
53671;BME280;39571;48.612;8.088;2022-07-15T01:25:41;100094.56;;;18.86;48.02
53671;BME280;39571;48.612;8.088;2022-07-15T01:28:08;100101.56;;;18.87;48.22
53671;BME280;39571;48.612;8.088;2022-07-15T01:30:34;100099.56;;;18.72;48.30
53671;BME280;39571;48.612;8.088;2022-07-15T01:32:59;100098.75;;;18.70;48.70
53671;BME280;39571;48.612;8.088;2022-07-15T01:35:24;100102.34;;;18.69;48.91
53671;BME280;39571;48.612;8.088;2022-07-15T01:37:50;100097.03;;;18.69;49.09
53671;BME280;39571;48.612;8.088;2022-07-15T01:40:15;100097.41;;;18.59;48.92
53671;BME280;39571;48.612;8.088;2022-07-15T01:42:41;100093.84;;;18.60;48.53
53671;BME280;39571;48.612;8.088;2022-07-15T01:45:08;100094.09;;;18.54;48.54
53671;BME280;39571;48.612;8.088;2022-07-15T01:47:41;100098.56;;;18.52;48.83
53671;BME280;39571;48.612;8.088;2022-07-15T01:50:07;100098.66;;;18.49;48.70
53671;BME280;39571;48.612;8.088;2022-07-15T01:52:33;100095.78;;;18.34;49.32
53671;BME280;39571;48.612;8.088;2022-07-15T01:54:58;100098.59;;;18.29;49.82
53671;BME280;39571;48.612;8.088;2022-07-15T01:57:23;100093.78;;;18.17;49.61
53671;BME280;39571;48.612;8.088;2022-07-15T01:59:48;100095.03;;;18.30;49.47
53671;BME280;39571;48.612;8.088;2022-07-15T02:02:14;100099.59;;;18.27;49.54
53671;BME280;39571;48.612;8.088;2022-07-15T02:04:40;100098.41;;;18.12;50.38
53671;BME280;39571;48.612;8.088;2022-07-15T02:07:05;100104.97;;;18.02;50.71
53671;BME280;39571;48.612;8.088;2022-07-15T02:09:31;100097.94;;;18.01;50.78
53671;BME280;39571;48.612;8.088;2022-07-15T02:11:56;100096.00;;;18.06;50.70
53671;BME280;39571;48.612;8.088;2022-07-15T02:14:21;100096.75;;;18.09;50.43
53671;BME280;39571;48.612;8.088;2022-07-15T02:16:47;100100.13;;;17.90;50.89
53671;BME280;39571;48.612;8.088;2022-07-15T02:19:12;100096.56;;;17.91;51.17
53671;BME280;39571;48.612;8.088;2022-07-15T02:21:38;100104.59;;;17.89;51.79
53671;BME280;39571;48.612;8.088;2022-07-15T02:24:03;100093.91;;;17.91;51.25
53671;BME280;39571;48.612;8.088;2022-07-15T02:26:29;100093.25;;;17.86;51.91
53671;BME280;39571;48.612;8.088;2022-07-15T02:28:54;100097.69;;;17.85;51.90
53671;BME280;39571;48.612;8.088;2022-07-15T02:31:19;100095.44;;;17.75;52.28
53671;BME280;39571;48.612;8.088;2022-07-15T02:33:45;100100.66;;;17.76;52.23
53671;BME280;39571;48.612;8.088;2022-07-15T02:36:11;100098.75;;;17.80;51.93
53671;BME280;39571;48.612;8.088;2022-07-15T02:38:38;100106.00;;;17.75;51.71
53671;BME280;39571;48.612;8.088;2022-07-15T02:41:03;100105.31;;;17.70;51.73
53671;BME280;39571;48.612;8.088;2022-07-15T02:43:29;100102.03;;;17.63;51.85
53671;BME280;39571;48.612;8.088;2022-07-15T02:45:55;100096.69;;;17.64;51.80
53671;BME280;39571;48.612;8.088;2022-07-15T02:48:20;100099.72;;;17.52;52.34
53671;BME280;39571;48.612;8.088;2022-07-15T02:50:47;100099.97;;;17.46;52.33
53671;BME280;39571;48.612;8.088;2022-07-15T02:53:12;100099.97;;;17.46;52.71
53671;BME280;39571;48.612;8.088;2022-07-15T02:55:38;100104.63;;;17.40;52.96
53671;BME280;39571;48.612;8.088;2022-07-15T02:58:03;100108.91;;;17.42;53.46
53671;BME280;39571;48.612;8.088;2022-07-15T03:00:28;100109.94;;;17.38;53.35
53671;BME280;39571;48.612;8.088;2022-07-15T03:02:55;100116.88;;;17.42;53.71
53671;BME280;39571;48.612;8.088;2022-07-15T03:05:21;100107.31;;;17.38;53.72
53671;BME280;39571;48.612;8.088;2022-07-15T03:07:46;100114.56;;;17.33;53.68
53671;BME280;39571;48.612;8.088;2022-07-15T03:10:13;100113.69;;;17.33;53.03
53671;BME280;39571;48.612;8.088;2022-07-15T03:12:38;100112.69;;;17.35;53.07
53671;BME280;39571;48.612;8.088;2022-07-15T03:15:05;100119.72;;;17.36;53.57
53671;BME280;39571;48.612;8.088;2022-07-15T03:17:30;100113.47;;;17.39;53.32
53671;BME280;39571;48.612;8.088;2022-07-15T03:19:56;100123.41;;;17.32;53.69
53671;BME280;39571;48.612;8.088;2022-07-15T03:22:22;100119.13;;;17.28;53.55
53671;BME280;39571;48.612;8.088;2022-07-15T03:24:48;100120.47;;;17.15;54.20
53671;BME280;39571;48.612;8.088;2022-07-15T03:27:14;100112.88;;;17.06;54.54
53671;BME280;39571;48.612;8.088;2022-07-15T03:29:41;100110.34;;;17.03;54.94
53671;BME280;39571;48.612;8.088;2022-07-15T03:32:06;100118.94;;;17.08;54.81
53671;BME280;39571;48.612;8.088;2022-07-15T03:34:32;100123.63;;;17.00;55.17
53671;BME280;39571;48.612;8.088;2022-07-15T03:36:57;100117.22;;;17.07;55.14
53671;BME280;39571;48.612;8.088;2022-07-15T03:39:24;100116.31;;;17.08;55.71
53671;BME280;39571;48.612;8.088;2022-07-15T03:41:50;100125.06;;;17.10;54.94
53671;BME280;39571;48.612;8.088;2022-07-15T03:44:15;100118.94;;;17.08;55.35
53671;BME280;39571;48.612;8.088;2022-07-15T03:46:41;100125.22;;;17.05;55.39
53671;BME280;39571;48.612;8.088;2022-07-15T03:49:07;100130.44;;;17.07;55.61
53671;BME280;39571;48.612;8.088;2022-07-15T03:51:32;100127.09;;;17.02;55.24
53671;BME280;39571;48.612;8.088;2022-07-15T03:54:02;100122.94;;;16.95;55.60
53671;BME280;39571;48.612;8.088;2022-07-15T03:56:29;100137.13;;;16.92;55.31
53671;BME280;39571;48.612;8.088;2022-07-15T03:58:55;100142.44;;;16.91;55.08
53671;BME280;39571;48.612;8.088;2022-07-15T04:01:21;100130.03;;;16.93;55.55
53671;BME280;39571;48.612;8.088;2022-07-15T04:03:50;100126.81;;;16.85;55.03
53671;BME280;39571;48.612;8.088;2022-07-15T04:06:16;100128.72;;;16.80;55.69
53671;BME280;39571;48.612;8.088;2022-07-15T04:08:43;100124.53;;;16.73;55.87
53671;BME280;39571;48.612;8.088;2022-07-15T04:11:09;100132.47;;;16.73;56.77
53671;BME280;39571;48.612;8.088;2022-07-15T04:13:34;100131.47;;;16.77;56.37
53671;BME280;39571;48.612;8.088;2022-07-15T04:16:00;100134.00;;;16.80;56.99
53671;BME280;39571;48.612;8.088;2022-07-15T04:18:25;100133.09;;;16.81;56.95
53671;BME280;39571;48.612;8.088;2022-07-15T04:20:51;100130.13;;;16.90;57.05
53671;BME280;39571;48.612;8.088;2022-07-15T04:23:16;100141.34;;;16.98;56.49
53671;BME280;39571;48.612;8.088;2022-07-15T04:25:41;100150.00;;;17.03;56.31
53671;BME280;39571;48.612;8.088;2022-07-15T04:28:07;100151.78;;;17.02;56.23
53671;BME280;39571;48.612;8.088;2022-07-15T04:30:32;100155.00;;;17.10;55.93
53671;BME280;39571;48.612;8.088;2022-07-15T04:32:58;100161.06;;;17.14;56.28
53671;BME280;39571;48.612;8.088;2022-07-15T04:35:23;100160.94;;;17.17;56.37
53671;BME280;39571;48.612;8.088;2022-07-15T04:37:49;100162.69;;;17.18;56.32
53671;BME280;39571;48.612;8.088;2022-07-15T04:40:14;100158.81;;;17.28;56.01
53671;BME280;39571;48.612;8.088;2022-07-15T04:42:39;100171.22;;;17.26;56.27
53671;BME280;39571;48.612;8.088;2022-07-15T04:45:05;100178.97;;;17.32;56.23
53671;BME280;39571;48.612;8.088;2022-07-15T04:47:31;100174.38;;;17.37;56.42
53671;BME280;39571;48.612;8.088;2022-07-15T04:49:56;100173.41;;;17.40;55.86
53671;BME280;39571;48.612;8.088;2022-07-15T04:52:45;100160.09;;;17.41;56.56
53671;BME280;39571;48.612;8.088;2022-07-15T04:55:12;100163.34;;;17.49;56.53
53671;BME280;39571;48.612;8.088;2022-07-15T04:57:37;100159.50;;;17.59;56.46
53671;BME280;39571;48.612;8.088;2022-07-15T05:00:04;100163.72;;;17.65;56.21
53671;BME280;39571;48.612;8.088;2022-07-15T05:02:30;100170.09;;;17.59;55.74
53671;BME280;39571;48.612;8.088;2022-07-15T05:04:55;100165.00;;;17.53;55.42
53671;BME280;39571;48.612;8.088;2022-07-15T05:07:20;100170.19;;;17.56;55.39
53671;BME280;39571;48.612;8.088;2022-07-15T05:09:46;100164.91;;;17.56;54.98
53671;BME280;39571;48.612;8.088;2022-07-15T05:12:12;100165.84;;;17.54;54.91
53671;BME280;39571;48.612;8.088;2022-07-15T05:14:37;100167.50;;;17.58;56.28
53671;BME280;39571;48.612;8.088;2022-07-15T05:17:05;100172.63;;;17.62;56.48
53671;BME280;39571;48.612;8.088;2022-07-15T05:19:32;100164.91;;;17.56;57.48
53671;BME280;39571;48.612;8.088;2022-07-15T05:21:57;100167.03;;;17.45;57.55
53671;BME280;39571;48.612;8.088;2022-07-15T05:24:22;100172.09;;;17.51;57.16
53671;BME280;39571;48.612;8.088;2022-07-15T05:26:48;100166.06;;;17.48;57.90
53671;BME280;39571;48.612;8.088;2022-07-15T05:29:13;100169.19;;;17.60;57.82
53671;BME280;39571;48.612;8.088;2022-07-15T05:31:39;100173.63;;;17.58;57.60
53671;BME280;39571;48.612;8.088;2022-07-15T05:34:04;100170.38;;;17.50;57.76
53671;BME280;39571;48.612;8.088;2022-07-15T05:36:29;100173.06;;;17.49;57.68
53671;BME280;39571;48.612;8.088;2022-07-15T05:38:55;100181.72;;;17.54;58.00
53671;BME280;39571;48.612;8.088;2022-07-15T05:41:20;100179.25;;;17.49;58.44
53671;BME280;39571;48.612;8.088;2022-07-15T05:43:45;100178.34;;;17.50;57.76
53671;BME280;39571;48.612;8.088;2022-07-15T05:46:11;100184.31;;;17.57;57.64
53671;BME280;39571;48.612;8.088;2022-07-15T05:48:37;100191.25;;;17.59;57.87
53671;BME280;39571;48.612;8.088;2022-07-15T05:51:05;100184.94;;;17.63;57.73
53671;BME280;39571;48.612;8.088;2022-07-15T05:53:30;100189.22;;;17.67;57.30
53671;BME280;39571;48.612;8.088;2022-07-15T05:55:56;100193.50;;;17.72;57.98
53671;BME280;39571;48.612;8.088;2022-07-15T05:58:23;100195.19;;;17.73;58.59
53671;BME280;39571;48.612;8.088;2022-07-15T06:00:50;100199.16;;;17.86;58.36
53671;BME280;39571;48.612;8.088;2022-07-15T06:03:15;100200.09;;;18.08;57.87
53671;BME280;39571;48.612;8.088;2022-07-15T06:05:41;100199.75;;;18.17;57.15
53671;BME280;39571;48.612;8.088;2022-07-15T06:08:07;100195.72;;;18.30;57.77
53671;BME280;39571;48.612;8.088;2022-07-15T06:10:33;100203.56;;;18.56;56.82
53671;BME280;39571;48.612;8.088;2022-07-15T06:12:58;100200.13;;;18.76;55.51
53671;BME280;39571;48.612;8.088;2022-07-15T06:15:24;100196.69;;;18.96;55.29
53671;BME280;39571;48.612;8.088;2022-07-15T06:17:49;100188.09;;;19.11;54.59
53671;BME280;39571;48.612;8.088;2022-07-15T06:20:15;100190.25;;;19.23;54.06
53671;BME280;39571;48.612;8.088;2022-07-15T06:22:41;100188.66;;;19.41;54.09
53671;BME280;39571;48.612;8.088;2022-07-15T06:25:07;100193.28;;;19.34;53.32
53671;BME280;39571;48.612;8.088;2022-07-15T06:27:33;100183.66;;;19.53;53.42
53671;BME280;39571;48.612;8.088;2022-07-15T06:29:59;100186.72;;;19.64;52.23
53671;BME280;39571;48.612;8.088;2022-07-15T06:32:25;100196.50;;;19.83;52.29
53671;BME280;39571;48.612;8.088;2022-07-15T06:34:50;100181.63;;;19.99;52.51
53671;BME280;39571;48.612;8.088;2022-07-15T06:37:16;100187.09;;;20.14;51.06
53671;BME280;39571;48.612;8.088;2022-07-15T06:39:42;100180.25;;;20.29;50.68
53671;BME280;39571;48.612;8.088;2022-07-15T06:42:08;100183.50;;;20.36;50.11
53671;BME280;39571;48.612;8.088;2022-07-15T06:44:33;100188.47;;;20.43;49.89
53671;BME280;39571;48.612;8.088;2022-07-15T06:46:59;100182.41;;;20.58;49.75
53671;BME280;39571;48.612;8.088;2022-07-15T06:49:24;100187.22;;;20.69;49.26
53671;BME280;39571;48.612;8.088;2022-07-15T06:51:50;100187.78;;;20.76;49.02
53671;BME280;39571;48.612;8.088;2022-07-15T06:54:17;100190.88;;;20.85;49.03
53671;BME280;39571;48.612;8.088;2022-07-15T06:56:43;100192.22;;;20.94;48.25
53671;BME280;39571;48.612;8.088;2022-07-15T06:59:09;100191.69;;;21.04;48.29
53671;BME280;39571;48.612;8.088;2022-07-15T07:01:35;100197.28;;;21.17;48.04
53671;BME280;39571;48.612;8.088;2022-07-15T07:04:00;100192.84;;;21.17;48.09
53671;BME280;39571;48.612;8.088;2022-07-15T07:06:26;100191.53;;;21.43;47.79
53671;BME280;39571;48.612;8.088;2022-07-15T07:08:52;100198.09;;;21.71;47.37
53671;BME280;39571;48.612;8.088;2022-07-15T07:11:18;100200.81;;;21.86;45.97
53671;BME280;39571;48.612;8.088;2022-07-15T07:13:43;100197.31;;;22.03;45.72
53671;BME280;39571;48.612;8.088;2022-07-15T07:16:09;100195.13;;;22.27;45.12
53671;BME280;39571;48.612;8.088;2022-07-15T07:18:35;100197.28;;;22.51;45.60
53671;BME280;39571;48.612;8.088;2022-07-15T07:21:00;100190.09;;;22.69;44.27
53671;BME280;39571;48.612;8.088;2022-07-15T07:23:27;100193.03;;;22.96;43.56
53671;BME280;39571;48.612;8.088;2022-07-15T07:25:53;100190.41;;;23.10;43.03
53671;BME280;39571;48.612;8.088;2022-07-15T07:28:19;100195.91;;;23.23;42.71
53671;BME280;39571;48.612;8.088;2022-07-15T07:30:44;100187.13;;;23.21;42.36
53671;BME280;39571;48.612;8.088;2022-07-15T07:33:11;100195.56;;;23.29;42.76
53671;BME280;39571;48.612;8.088;2022-07-15T07:35:37;100194.94;;;23.39;42.47
53671;BME280;39571;48.612;8.088;2022-07-15T07:38:02;100187.75;;;23.55;43.36
53671;BME280;39571;48.612;8.088;2022-07-15T07:40:28;100192.00;;;23.74;42.09
53671;BME280;39571;48.612;8.088;2022-07-15T07:42:53;100192.22;;;23.99;40.73
53671;BME280;39571;48.612;8.088;2022-07-15T07:45:21;100186.09;;;24.11;40.49
53671;BME280;39571;48.612;8.088;2022-07-15T07:47:47;100184.41;;;24.38;39.12
53671;BME280;39571;48.612;8.088;2022-07-15T07:50:12;100192.81;;;24.46;39.08
53671;BME280;39571;48.612;8.088;2022-07-15T07:52:37;100188.38;;;24.59;38.12
53671;BME280;39571;48.612;8.088;2022-07-15T07:55:03;100187.63;;;24.72;38.06
53671;BME280;39571;48.612;8.088;2022-07-15T07:57:29;100191.56;;;24.93;37.16
53671;BME280;39571;48.612;8.088;2022-07-15T07:59:54;100191.03;;;25.14;36.81
53671;BME280;39571;48.612;8.088;2022-07-15T08:02:19;100200.22;;;25.37;35.89
53671;BME280;39571;48.612;8.088;2022-07-15T08:04:45;100185.38;;;25.58;35.99
53671;BME280;39571;48.612;8.088;2022-07-15T08:07:10;100185.19;;;25.74;35.62
53671;BME280;39571;48.612;8.088;2022-07-15T08:09:37;100183.72;;;25.95;35.67
53671;BME280;39571;48.612;8.088;2022-07-15T08:12:03;100179.63;;;26.40;35.41
53671;BME280;39571;48.612;8.088;2022-07-15T08:14:29;100180.31;;;26.68;33.97
53671;BME280;39571;48.612;8.088;2022-07-15T08:16:54;100175.22;;;26.88;33.99
53671;BME280;39571;48.612;8.088;2022-07-15T08:19:19;100177.59;;;27.28;33.29
53671;BME280;39571;48.612;8.088;2022-07-15T08:21:45;100175.50;;;28.01;31.64
53671;BME280;39571;48.612;8.088;2022-07-15T08:24:12;100173.91;;;28.65;30.35
53671;BME280;39571;48.612;8.088;2022-07-15T08:26:38;100173.31;;;30.80;26.73
53671;BME280;39571;48.612;8.088;2022-07-15T08:29:04;100170.09;;;33.20;23.82
53671;BME280;39571;48.612;8.088;2022-07-15T08:31:30;100163.19;;;36.41;20.11
53671;BME280;39571;48.612;8.088;2022-07-15T08:33:56;100161.00;;;38.71;16.57
53671;BME280;39571;48.612;8.088;2022-07-15T08:36:21;100156.50;;;40.94;14.92
53671;BME280;39571;48.612;8.088;2022-07-15T08:38:47;100164.69;;;41.87;13.84
53671;BME280;39571;48.612;8.088;2022-07-15T08:41:15;100168.81;;;43.44;13.10
53671;BME280;39571;48.612;8.088;2022-07-15T08:43:40;100156.38;;;44.46;11.42
53671;BME280;39571;48.612;8.088;2022-07-15T08:46:07;100163.28;;;45.51;10.70
53671;BME280;39571;48.612;8.088;2022-07-15T08:48:36;100171.63;;;46.44;10.13
53671;BME280;39571;48.612;8.088;2022-07-15T08:51:04;100159.19;;;47.26;9.48
53671;BME280;39571;48.612;8.088;2022-07-15T08:53:30;100160.56;;;48.07;9.29
53671;BME280;39571;48.612;8.088;2022-07-15T08:55:57;100171.28;;;47.98;8.66
53671;BME280;39571;48.612;8.088;2022-07-15T08:58:22;100167.56;;;47.76;8.60
53671;BME280;39571;48.612;8.088;2022-07-15T09:00:48;100162.88;;;47.32;9.29
53671;BME280;39571;48.612;8.088;2022-07-15T09:03:14;100153.53;;;45.18;10.60
53671;BME280;39571;48.612;8.088;2022-07-15T09:05:40;100154.94;;;43.82;11.68
53671;BME280;39571;48.612;8.088;2022-07-15T09:08:08;100166.78;;;41.52;14.03
53671;BME280;39571;48.612;8.088;2022-07-15T09:13:32;100164.56;;;37.98;16.26
53671;BME280;39571;48.612;8.088;2022-07-15T09:16:02;100164.00;;;35.95;18.46
53671;BME280;39571;48.612;8.088;2022-07-15T09:18:32;100172.19;;;34.38;20.05
53671;BME280;39571;48.612;8.088;2022-07-15T09:20:59;100179.28;;;33.44;20.95
53671;BME280;39571;48.612;8.088;2022-07-15T09:23:26;100172.84;;;33.10;22.52
53671;BME280;39571;48.612;8.088;2022-07-15T09:26:01;100173.06;;;32.44;23.10
53671;BME280;39571;48.612;8.088;2022-07-15T09:28:44;100179.84;;;31.75;24.51
53671;BME280;39571;48.612;8.088;2022-07-15T09:31:10;100172.69;;;31.45;24.76
53671;BME280;39571;48.612;8.088;2022-07-15T09:34:01;100174.84;;;31.03;24.88
53671;BME280;39571;48.612;8.088;2022-07-15T09:36:31;100170.50;;;30.91;25.29
53671;BME280;39571;48.612;8.088;2022-07-15T09:39:02;100180.31;;;30.82;25.28
53671;BME280;39571;48.612;8.088;2022-07-15T09:44:03;100178.13;;;30.67;25.10
53671;BME280;39571;48.612;8.088;2022-07-15T09:46:53;100174.69;;;31.14;24.50
53671;BME280;39571;48.612;8.088;2022-07-15T09:51:54;100175.38;;;32.94;22.63
53671;BME280;39571;48.612;8.088;2022-07-15T09:54:22;100175.25;;;33.48;21.99
53671;BME280;39571;48.612;8.088;2022-07-15T09:56:48;100173.91;;;33.88;21.19
53671;BME280;39571;48.612;8.088;2022-07-15T09:59:16;100162.31;;;33.86;21.05
53671;BME280;39571;48.612;8.088;2022-07-15T10:01:42;100171.13;;;33.44;21.48
53671;BME280;39571;48.612;8.088;2022-07-15T10:04:09;100167.03;;;33.05;21.42
53671;BME280;39571;48.612;8.088;2022-07-15T10:06:37;100161.03;;;32.57;22.84
53671;BME280;39571;48.612;8.088;2022-07-15T10:09:04;100154.72;;;31.92;22.67
53671;BME280;39571;48.612;8.088;2022-07-15T10:11:31;100154.75;;;31.73;22.96
53671;BME280;39571;48.612;8.088;2022-07-15T10:19:23;100145.09;;;31.03;24.28
53671;BME280;39571;48.612;8.088;2022-07-15T10:30:09;100138.28;;;30.49;25.35
53671;BME280;39571;48.612;8.088;2022-07-15T10:35:38;100134.47;;;30.31;25.19
53671;BME280;39571;48.612;8.088;2022-07-15T10:38:32;100135.72;;;30.27;25.77
53671;BME280;39571;48.612;8.088;2022-07-15T10:43:46;100130.59;;;30.24;25.48
53671;BME280;39571;48.612;8.088;2022-07-15T10:48:37;100126.03;;;29.85;25.43
53671;BME280;39571;48.612;8.088;2022-07-15T10:51:02;100127.94;;;29.94;25.28
53671;BME280;39571;48.612;8.088;2022-07-15T10:53:28;100122.72;;;30.02;26.27
53671;BME280;39571;48.612;8.088;2022-07-15T10:55:54;100118.56;;;29.98;26.31
53671;BME280;39571;48.612;8.088;2022-07-15T10:58:20;100114.88;;;29.99;26.57
53671;BME280;39571;48.612;8.088;2022-07-15T11:00:46;100119.19;;;30.11;25.97
53671;BME280;39571;48.612;8.088;2022-07-15T11:03:17;100120.91;;;30.12;25.60
53671;BME280;39571;48.612;8.088;2022-07-15T11:13:40;100119.19;;;30.11;25.50
53671;BME280;39571;48.612;8.088;2022-07-15T11:16:10;100113.22;;;30.07;25.66
53671;BME280;39571;48.612;8.088;2022-07-15T11:18:53;100120.16;;;30.10;25.76
53671;BME280;39571;48.612;8.088;2022-07-15T11:21:20;100111.59;;;29.95;25.37
53671;BME280;39571;48.612;8.088;2022-07-15T11:23:47;100115.31;;;29.53;25.29
53671;BME280;39571;48.612;8.088;2022-07-15T11:26:14;100107.00;;;29.66;26.45
53671;BME280;39571;48.612;8.088;2022-07-15T11:28:49;100107.16;;;29.85;26.03
53671;BME280;39571;48.612;8.088;2022-07-15T11:31:15;100105.94;;;29.78;25.82
53671;BME280;39571;48.612;8.088;2022-07-15T11:33:40;100107.06;;;29.75;26.06
53671;BME280;39571;48.612;8.088;2022-07-15T11:36:17;100106.22;;;29.75;26.07
53671;BME280;39571;48.612;8.088;2022-07-15T11:38:42;100115.47;;;29.82;25.97
53671;BME280;39571;48.612;8.088;2022-07-15T11:41:08;100099.91;;;29.85;25.98
53671;BME280;39571;48.612;8.088;2022-07-15T11:46:47;100111.19;;;30.00;25.02
53671;BME280;39571;48.612;8.088;2022-07-15T11:49:36;100104.50;;;29.94;25.63
53671;BME280;39571;48.612;8.088;2022-07-15T11:52:05;100110.38;;;30.09;25.56
53671;BME280;39571;48.612;8.088;2022-07-15T11:54:31;100109.59;;;29.46;24.74
53671;BME280;39571;48.612;8.088;2022-07-15T11:56:59;100097.00;;;29.56;26.04
53671;BME280;39571;48.612;8.088;2022-07-15T11:59:25;100112.72;;;29.72;25.74
53671;BME280;39571;48.612;8.088;2022-07-15T12:02:10;100111.88;;;29.72;26.11
53671;BME280;39571;48.612;8.088;2022-07-15T12:04:37;100109.06;;;29.83;26.29
53671;BME280;39571;48.612;8.088;2022-07-15T12:07:03;100104.03;;;29.89;26.13
53671;BME280;39571;48.612;8.088;2022-07-15T12:09:58;100099.47;;;29.90;25.58
53671;BME280;39571;48.612;8.088;2022-07-15T12:12:23;100106.31;;;29.94;25.76
53671;BME280;39571;48.612;8.088;2022-07-15T12:14:50;100107.38;;;29.82;25.72
53671;BME280;39571;48.612;8.088;2022-07-15T12:17:16;100104.50;;;29.74;26.00
53671;BME280;39571;48.612;8.088;2022-07-15T12:19:46;100103.50;;;29.75;27.03
53671;BME280;39571;48.612;8.088;2022-07-15T12:22:11;100093.69;;;29.74;26.30
53671;BME280;39571;48.612;8.088;2022-07-15T12:24:45;100094.88;;;29.81;24.68
53671;BME280;39571;48.612;8.088;2022-07-15T12:27:13;100087.25;;;29.86;25.77
53671;BME280;39571;48.612;8.088;2022-07-15T12:29:39;100091.84;;;29.95;26.14
53671;BME280;39571;48.612;8.088;2022-07-15T12:32:10;100085.34;;;30.07;24.78
53671;BME280;39571;48.612;8.088;2022-07-15T12:34:54;100093.03;;;30.02;25.45
53671;BME280;39571;48.612;8.088;2022-07-15T12:37:45;100091.03;;;30.04;24.82
53671;BME280;39571;48.612;8.088;2022-07-15T12:40:14;100095.25;;;29.97;24.92
53671;BME280;39571;48.612;8.088;2022-07-15T12:42:47;100082.69;;;29.86;24.02
53671;BME280;39571;48.612;8.088;2022-07-15T12:45:18;100078.16;;;29.87;23.91
53671;BME280;39571;48.612;8.088;2022-07-15T12:48:03;100083.09;;;29.82;23.92
53671;BME280;39571;48.612;8.088;2022-07-15T12:50:34;100083.50;;;29.77;24.53
53671;BME280;39571;48.612;8.088;2022-07-15T12:53:01;100085.88;;;29.91;24.25
53671;BME280;39571;48.612;8.088;2022-07-15T12:55:30;100080.41;;;29.82;24.12
53671;BME280;39571;48.612;8.088;2022-07-15T12:58:04;100086.00;;;29.69;23.63
53671;BME280;39571;48.612;8.088;2022-07-15T13:00:30;100088.31;;;29.74;25.02
53671;BME280;39571;48.612;8.088;2022-07-15T13:05:21;100088.31;;;29.74;23.75
53671;BME280;39571;48.612;8.088;2022-07-15T13:07:47;100084.34;;;29.78;23.64
53671;BME280;39571;48.612;8.088;2022-07-15T13:10:12;100085.78;;;29.82;23.39
53671;BME280;39571;48.612;8.088;2022-07-15T13:12:38;100079.22;;;29.75;24.07
53671;BME280;39571;48.612;8.088;2022-07-15T13:15:04;100085.13;;;29.69;23.90
53671;BME280;39571;48.612;8.088;2022-07-15T13:17:30;100072.38;;;29.71;24.65
53671;BME280;39571;48.612;8.088;2022-07-15T13:19:55;100068.94;;;29.69;24.57
53671;BME280;39571;48.612;8.088;2022-07-15T13:22:20;100076.91;;;29.70;24.44
53671;BME280;39571;48.612;8.088;2022-07-15T13:24:46;100083.00;;;29.93;23.50
53671;BME280;39571;48.612;8.088;2022-07-15T13:27:11;100081.84;;;29.86;24.02
53671;BME280;39571;48.612;8.088;2022-07-15T13:29:37;100069.13;;;29.77;23.79
53671;BME280;39571;48.612;8.088;2022-07-15T13:32:02;100072.56;;;29.79;23.27